sensor_id;sensor_type;location;lat;lon;timestamp;P1;durP1;ratioP1;P2;durP2;ratioP2
12350;SDS011;6240;51.538;7.696;2022-10-31T00:01:10;9.05;;;4.93;;
12350;SDS011;6240;51.538;7.696;2022-10-31T00:03:37;9.33;;;5.27;;
12350;SDS011;6240;51.538;7.696;2022-10-31T00:06:04;7.03;;;4.90;;
12350;SDS011;6240;51.538;7.696;2022-10-31T00:08:31;10.93;;;5.10;;
12350;SDS011;6240;51.538;7.696;2022-10-31T00:10:59;8.80;;;5.90;;
12350;SDS011;6240;51.538;7.696;2022-10-31T00:13:26;10.90;;;5.60;;
12350;SDS011;6240;51.538;7.696;2022-10-31T00:15:54;9.30;;;5.20;;
12350;SDS011;6240;51.538;7.696;2022-10-31T00:18:21;8.07;;;5.20;;
12350;SDS011;6240;51.538;7.696;2022-10-31T00:20:49;8.87;;;4.97;;
12350;SDS011;6240;51.538;7.696;2022-10-31T00:23:24;10.97;;;5.60;;
12350;SDS011;6240;51.538;7.696;2022-10-31T00:25:51;7.27;;;4.93;;
12350;SDS011;6240;51.538;7.696;2022-10-31T00:28:18;10.43;;;5.22;;
12350;SDS011;6240;51.538;7.696;2022-10-31T00:30:46;11.63;;;5.37;;
12350;SDS011;6240;51.538;7.696;2022-10-31T00:33:14;12.27;;;5.63;;
12350;SDS011;6240;51.538;7.696;2022-10-31T00:35:48;13.35;;;5.80;;
12350;SDS011;6240;51.538;7.696;2022-10-31T00:38:15;10.32;;;6.07;;
12350;SDS011;6240;51.538;7.696;2022-10-31T00:40:43;11.60;;;5.55;;
12350;SDS011;6240;51.538;7.696;2022-10-31T00:43:10;9.97;;;5.53;;
12350;SDS011;6240;51.538;7.696;2022-10-31T00:45:37;15.37;;;5.93;;
12350;SDS011;6240;51.538;7.696;2022-10-31T00:48:04;12.73;;;5.82;;
12350;SDS011;6240;51.538;7.696;2022-10-31T00:50:33;15.40;;;6.57;;
12350;SDS011;6240;51.538;7.696;2022-10-31T00:53:00;13.87;;;6.10;;
12350;SDS011;6240;51.538;7.696;2022-10-31T00:55:27;14.87;;;6.03;;
12350;SDS011;6240;51.538;7.696;2022-10-31T00:57:54;12.23;;;5.90;;
12350;SDS011;6240;51.538;7.696;2022-10-31T01:00:22;11.52;;;5.85;;
12350;SDS011;6240;51.538;7.696;2022-10-31T01:02:49;10.52;;;6.10;;
12350;SDS011;6240;51.538;7.696;2022-10-31T01:05:16;12.57;;;6.55;;
12350;SDS011;6240;51.538;7.696;2022-10-31T01:07:45;8.95;;;5.53;;
12350;SDS011;6240;51.538;7.696;2022-10-31T01:10:12;10.65;;;6.07;;
12350;SDS011;6240;51.538;7.696;2022-10-31T01:12:40;9.23;;;5.47;;
12350;SDS011;6240;51.538;7.696;2022-10-31T01:15:08;8.30;;;5.37;;
12350;SDS011;6240;51.538;7.696;2022-10-31T01:17:36;11.45;;;6.25;;
12350;SDS011;6240;51.538;7.696;2022-10-31T01:20:04;10.30;;;5.32;;
12350;SDS011;6240;51.538;7.696;2022-10-31T01:22:31;8.67;;;5.53;;
12350;SDS011;6240;51.538;7.696;2022-10-31T01:24:59;9.33;;;5.50;;
12350;SDS011;6240;51.538;7.696;2022-10-31T01:27:26;11.80;;;5.97;;
12350;SDS011;6240;51.538;7.696;2022-10-31T01:29:54;13.33;;;5.60;;
12350;SDS011;6240;51.538;7.696;2022-10-31T01:32:21;10.47;;;5.93;;
12350;SDS011;6240;51.538;7.696;2022-10-31T01:34:48;11.73;;;5.83;;
12350;SDS011;6240;51.538;7.696;2022-10-31T01:37:15;10.82;;;5.25;;
12350;SDS011;6240;51.538;7.696;2022-10-31T01:39:43;9.98;;;5.30;;
12350;SDS011;6240;51.538;7.696;2022-10-31T01:42:12;10.03;;;5.00;;
12350;SDS011;6240;51.538;7.696;2022-10-31T01:44:52;13.65;;;5.53;;
12350;SDS011;6240;51.538;7.696;2022-10-31T01:47:21;10.77;;;5.50;;
12350;SDS011;6240;51.538;7.696;2022-10-31T01:49:52;8.93;;;5.50;;
12350;SDS011;6240;51.538;7.696;2022-10-31T01:52:21;12.25;;;5.63;;
12350;SDS011;6240;51.538;7.696;2022-10-31T01:54:50;9.33;;;5.50;;
12350;SDS011;6240;51.538;7.696;2022-10-31T01:57:20;9.93;;;5.22;;
12350;SDS011;6240;51.538;7.696;2022-10-31T01:59:48;12.07;;;5.37;;
12350;SDS011;6240;51.538;7.696;2022-10-31T02:02:16;11.57;;;5.35;;
12350;SDS011;6240;51.538;7.696;2022-10-31T02:04:44;8.57;;;5.23;;
12350;SDS011;6240;51.538;7.696;2022-10-31T02:07:12;11.23;;;5.57;;
12350;SDS011;6240;51.538;7.696;2022-10-31T02:09:40;12.23;;;5.83;;
12350;SDS011;6240;51.538;7.696;2022-10-31T02:12:08;13.00;;;6.40;;
12350;SDS011;6240;51.538;7.696;2022-10-31T02:14:37;10.80;;;6.17;;
12350;SDS011;6240;51.538;7.696;2022-10-31T02:17:06;8.37;;;5.57;;
12350;SDS011;6240;51.538;7.696;2022-10-31T02:19:34;7.70;;;6.47;;
12350;SDS011;6240;51.538;7.696;2022-10-31T02:22:06;12.73;;;6.20;;
12350;SDS011;6240;51.538;7.696;2022-10-31T02:24:41;11.32;;;6.22;;
12350;SDS011;6240;51.538;7.696;2022-10-31T02:27:11;14.13;;;7.37;;
12350;SDS011;6240;51.538;7.696;2022-10-31T02:30:02;13.60;;;6.70;;
12350;SDS011;6240;51.538;7.696;2022-10-31T02:32:35;12.48;;;6.47;;
12350;SDS011;6240;51.538;7.696;2022-10-31T02:35:08;12.80;;;5.97;;
12350;SDS011;6240;51.538;7.696;2022-10-31T02:37:37;9.57;;;5.78;;
12350;SDS011;6240;51.538;7.696;2022-10-31T02:40:10;12.25;;;5.43;;
12350;SDS011;6240;51.538;7.696;2022-10-31T02:42:41;12.45;;;6.07;;
12350;SDS011;6240;51.538;7.696;2022-10-31T02:45:12;12.77;;;6.33;;
12350;SDS011;6240;51.538;7.696;2022-10-31T02:47:42;11.43;;;6.30;;
12350;SDS011;6240;51.538;7.696;2022-10-31T02:50:11;9.05;;;5.90;;
12350;SDS011;6240;51.538;7.696;2022-10-31T02:52:39;11.10;;;6.33;;
12350;SDS011;6240;51.538;7.696;2022-10-31T02:55:11;10.30;;;6.03;;
12350;SDS011;6240;51.538;7.696;2022-10-31T02:57:38;7.70;;;5.90;;
12350;SDS011;6240;51.538;7.696;2022-10-31T03:00:07;9.93;;;6.13;;
12350;SDS011;6240;51.538;7.696;2022-10-31T03:02:48;13.63;;;6.43;;
12350;SDS011;6240;51.538;7.696;2022-10-31T03:05:22;11.45;;;6.25;;
12350;SDS011;6240;51.538;7.696;2022-10-31T03:07:53;9.00;;;6.35;;
12350;SDS011;6240;51.538;7.696;2022-10-31T03:10:24;9.63;;;6.15;;
12350;SDS011;6240;51.538;7.696;2022-10-31T03:12:54;12.60;;;6.00;;
12350;SDS011;6240;51.538;7.696;2022-10-31T03:15:24;11.43;;;5.87;;
12350;SDS011;6240;51.538;7.696;2022-10-31T03:17:56;9.63;;;5.85;;
12350;SDS011;6240;51.538;7.696;2022-10-31T03:20:25;12.35;;;6.53;;
12350;SDS011;6240;51.538;7.696;2022-10-31T03:22:53;12.77;;;6.27;;
12350;SDS011;6240;51.538;7.696;2022-10-31T03:25:21;11.03;;;6.83;;
12350;SDS011;6240;51.538;7.696;2022-10-31T03:27:49;13.35;;;6.20;;
12350;SDS011;6240;51.538;7.696;2022-10-31T03:30:18;8.57;;;5.97;;
12350;SDS011;6240;51.538;7.696;2022-10-31T03:32:46;9.80;;;6.50;;
12350;SDS011;6240;51.538;7.696;2022-10-31T03:35:17;9.57;;;6.27;;
12350;SDS011;6240;51.538;7.696;2022-10-31T03:37:46;11.93;;;5.93;;
12350;SDS011;6240;51.538;7.696;2022-10-31T03:40:14;11.97;;;6.73;;
12350;SDS011;6240;51.538;7.696;2022-10-31T03:42:43;9.53;;;6.27;;
12350;SDS011;6240;51.538;7.696;2022-10-31T03:45:14;14.90;;;6.53;;
12350;SDS011;6240;51.538;7.696;2022-10-31T03:47:42;10.63;;;6.23;;
12350;SDS011;6240;51.538;7.696;2022-10-31T03:50:10;12.03;;;6.53;;
12350;SDS011;6240;51.538;7.696;2022-10-31T03:52:41;9.87;;;6.17;;
12350;SDS011;6240;51.538;7.696;2022-10-31T03:55:10;11.07;;;6.43;;
12350;SDS011;6240;51.538;7.696;2022-10-31T03:57:41;10.15;;;6.35;;
12350;SDS011;6240;51.538;7.696;2022-10-31T04:00:11;11.13;;;6.57;;
12350;SDS011;6240;51.538;7.696;2022-10-31T04:02:40;10.37;;;6.83;;
12350;SDS011;6240;51.538;7.696;2022-10-31T04:05:08;14.07;;;6.50;;
12350;SDS011;6240;51.538;7.696;2022-10-31T04:07:36;12.73;;;6.30;;
12350;SDS011;6240;51.538;7.696;2022-10-31T04:10:07;11.83;;;6.70;;
12350;SDS011;6240;51.538;7.696;2022-10-31T04:12:35;13.87;;;7.00;;
12350;SDS011;6240;51.538;7.696;2022-10-31T04:15:04;11.03;;;6.33;;
12350;SDS011;6240;51.538;7.696;2022-10-31T04:17:33;11.07;;;6.87;;
12350;SDS011;6240;51.538;7.696;2022-10-31T04:20:02;10.83;;;6.13;;
12350;SDS011;6240;51.538;7.696;2022-10-31T04:22:29;10.83;;;6.67;;
12350;SDS011;6240;51.538;7.696;2022-10-31T04:24:56;15.03;;;6.50;;
12350;SDS011;6240;51.538;7.696;2022-10-31T04:27:25;11.60;;;6.77;;
12350;SDS011;6240;51.538;7.696;2022-10-31T04:29:52;10.43;;;6.27;;
12350;SDS011;6240;51.538;7.696;2022-10-31T04:32:19;9.67;;;5.87;;
12350;SDS011;6240;51.538;7.696;2022-10-31T04:34:46;10.87;;;5.97;;
12350;SDS011;6240;51.538;7.696;2022-10-31T04:37:13;9.43;;;6.47;;
12350;SDS011;6240;51.538;7.696;2022-10-31T04:39:40;15.37;;;7.00;;
12350;SDS011;6240;51.538;7.696;2022-10-31T04:42:08;13.32;;;6.80;;
12350;SDS011;6240;51.538;7.696;2022-10-31T04:44:36;15.27;;;7.63;;
12350;SDS011;6240;51.538;7.696;2022-10-31T04:47:03;11.27;;;7.13;;
12350;SDS011;6240;51.538;7.696;2022-10-31T04:49:31;13.60;;;6.80;;
12350;SDS011;6240;51.538;7.696;2022-10-31T04:51:58;10.30;;;6.80;;
12350;SDS011;6240;51.538;7.696;2022-10-31T04:54:25;10.07;;;6.40;;
12350;SDS011;6240;51.538;7.696;2022-10-31T04:56:52;10.77;;;6.67;;
12350;SDS011;6240;51.538;7.696;2022-10-31T04:59:19;11.17;;;6.47;;
12350;SDS011;6240;51.538;7.696;2022-10-31T05:01:48;14.20;;;7.60;;
12350;SDS011;6240;51.538;7.696;2022-10-31T05:04:15;8.70;;;7.07;;
12350;SDS011;6240;51.538;7.696;2022-10-31T05:06:42;10.07;;;6.70;;
12350;SDS011;6240;51.538;7.696;2022-10-31T05:09:09;11.07;;;6.77;;
12350;SDS011;6240;51.538;7.696;2022-10-31T05:11:36;14.97;;;6.60;;
12350;SDS011;6240;51.538;7.696;2022-10-31T05:14:04;13.47;;;8.00;;
12350;SDS011;6240;51.538;7.696;2022-10-31T05:16:31;15.13;;;7.83;;
12350;SDS011;6240;51.538;7.696;2022-10-31T05:18:59;14.77;;;8.50;;
12350;SDS011;6240;51.538;7.696;2022-10-31T05:21:27;12.00;;;8.63;;
12350;SDS011;6240;51.538;7.696;2022-10-31T05:23:54;13.90;;;8.80;;
12350;SDS011;6240;51.538;7.696;2022-10-31T05:26:21;13.63;;;8.37;;
12350;SDS011;6240;51.538;7.696;2022-10-31T05:28:48;13.93;;;9.00;;
12350;SDS011;6240;51.538;7.696;2022-10-31T05:31:15;13.93;;;8.80;;
12350;SDS011;6240;51.538;7.696;2022-10-31T05:33:42;13.87;;;9.53;;
12350;SDS011;6240;51.538;7.696;2022-10-31T05:36:11;14.50;;;9.17;;
12350;SDS011;6240;51.538;7.696;2022-10-31T05:38:38;18.93;;;9.17;;
12350;SDS011;6240;51.538;7.696;2022-10-31T05:41:05;13.73;;;8.67;;
12350;SDS011;6240;51.538;7.696;2022-10-31T05:43:32;16.73;;;9.43;;
12350;SDS011;6240;51.538;7.696;2022-10-31T05:46:00;16.07;;;9.80;;
12350;SDS011;6240;51.538;7.696;2022-10-31T05:48:28;16.97;;;9.60;;
12350;SDS011;6240;51.538;7.696;2022-10-31T05:50:58;16.43;;;10.43;;
12350;SDS011;6240;51.538;7.696;2022-10-31T05:53:29;19.57;;;9.77;;
12350;SDS011;6240;51.538;7.696;2022-10-31T05:55:56;14.43;;;9.97;;
12350;SDS011;6240;51.538;7.696;2022-10-31T05:58:24;17.77;;;10.10;;
12350;SDS011;6240;51.538;7.696;2022-10-31T06:00:51;17.40;;;10.43;;
12350;SDS011;6240;51.538;7.696;2022-10-31T06:03:18;20.73;;;10.27;;
12350;SDS011;6240;51.538;7.696;2022-10-31T06:05:45;20.03;;;10.67;;
12350;SDS011;6240;51.538;7.696;2022-10-31T06:08:12;14.80;;;9.60;;
12350;SDS011;6240;51.538;7.696;2022-10-31T06:10:41;17.77;;;9.93;;
12350;SDS011;6240;51.538;7.696;2022-10-31T06:13:08;15.97;;;9.23;;
12350;SDS011;6240;51.538;7.696;2022-10-31T06:15:36;15.10;;;9.63;;
12350;SDS011;6240;51.538;7.696;2022-10-31T06:18:04;16.10;;;9.20;;
12350;SDS011;6240;51.538;7.696;2022-10-31T06:20:31;14.63;;;9.17;;
12350;SDS011;6240;51.538;7.696;2022-10-31T06:22:59;14.10;;;9.43;;
12350;SDS011;6240;51.538;7.696;2022-10-31T06:25:26;13.37;;;8.37;;
12350;SDS011;6240;51.538;7.696;2022-10-31T06:27:56;15.67;;;9.50;;
12350;SDS011;6240;51.538;7.696;2022-10-31T06:30:23;19.93;;;9.00;;
12350;SDS011;6240;51.538;7.696;2022-10-31T06:32:50;14.47;;;8.20;;
12350;SDS011;6240;51.538;7.696;2022-10-31T06:35:18;12.33;;;8.20;;
12350;SDS011;6240;51.538;7.696;2022-10-31T06:37:50;16.53;;;8.93;;
12350;SDS011;6240;51.538;7.696;2022-10-31T06:40:18;15.10;;;8.90;;
12350;SDS011;6240;51.538;7.696;2022-10-31T06:42:58;12.97;;;8.60;;
12350;SDS011;6240;51.538;7.696;2022-10-31T06:45:27;20.13;;;9.93;;
12350;SDS011;6240;51.538;7.696;2022-10-31T06:47:56;15.60;;;8.73;;
12350;SDS011;6240;51.538;7.696;2022-10-31T06:50:23;16.70;;;8.87;;
12350;SDS011;6240;51.538;7.696;2022-10-31T06:52:52;11.63;;;7.70;;
12350;SDS011;6240;51.538;7.696;2022-10-31T06:55:19;11.97;;;7.60;;
12350;SDS011;6240;51.538;7.696;2022-10-31T06:57:50;13.60;;;7.37;;
12350;SDS011;6240;51.538;7.696;2022-10-31T07:00:20;13.30;;;8.13;;
12350;SDS011;6240;51.538;7.696;2022-10-31T07:02:53;13.93;;;8.73;;
12350;SDS011;6240;51.538;7.696;2022-10-31T07:05:21;15.90;;;9.13;;
12350;SDS011;6240;51.538;7.696;2022-10-31T07:07:51;17.43;;;8.30;;
12350;SDS011;6240;51.538;7.696;2022-10-31T07:10:19;13.20;;;8.57;;
12350;SDS011;6240;51.538;7.696;2022-10-31T07:12:46;14.80;;;9.27;;
12350;SDS011;6240;51.538;7.696;2022-10-31T07:15:13;15.27;;;9.50;;
12350;SDS011;6240;51.538;7.696;2022-10-31T07:17:41;19.73;;;10.10;;
12350;SDS011;6240;51.538;7.696;2022-10-31T07:20:09;19.43;;;10.57;;
12350;SDS011;6240;51.538;7.696;2022-10-31T07:22:36;18.77;;;10.77;;
12350;SDS011;6240;51.538;7.696;2022-10-31T07:25:04;20.17;;;11.77;;
12350;SDS011;6240;51.538;7.696;2022-10-31T07:27:34;19.17;;;11.23;;
12350;SDS011;6240;51.538;7.696;2022-10-31T07:30:04;22.87;;;12.43;;
12350;SDS011;6240;51.538;7.696;2022-10-31T07:32:38;23.53;;;13.00;;
12350;SDS011;6240;51.538;7.696;2022-10-31T07:35:07;21.93;;;12.67;;
12350;SDS011;6240;51.538;7.696;2022-10-31T07:37:34;23.07;;;13.87;;
12350;SDS011;6240;51.538;7.696;2022-10-31T07:40:02;22.47;;;12.13;;
12350;SDS011;6240;51.538;7.696;2022-10-31T07:42:34;18.63;;;10.77;;
12350;SDS011;6240;51.538;7.696;2022-10-31T07:45:01;16.63;;;10.30;;
12350;SDS011;6240;51.538;7.696;2022-10-31T07:47:29;22.03;;;12.07;;
12350;SDS011;6240;51.538;7.696;2022-10-31T07:49:56;18.17;;;12.10;;
12350;SDS011;6240;51.538;7.696;2022-10-31T07:52:25;19.60;;;10.97;;
12350;SDS011;6240;51.538;7.696;2022-10-31T07:54:52;27.57;;;11.50;;
12350;SDS011;6240;51.538;7.696;2022-10-31T07:57:19;24.80;;;11.47;;
12350;SDS011;6240;51.538;7.696;2022-10-31T07:59:47;26.37;;;10.77;;
12350;SDS011;6240;51.538;7.696;2022-10-31T08:02:18;19.17;;;10.50;;
12350;SDS011;6240;51.538;7.696;2022-10-31T08:04:46;23.40;;;12.50;;
12350;SDS011;6240;51.538;7.696;2022-10-31T08:07:13;25.70;;;12.73;;
12350;SDS011;6240;51.538;7.696;2022-10-31T08:09:42;17.90;;;10.80;;
12350;SDS011;6240;51.538;7.696;2022-10-31T08:12:09;17.47;;;11.17;;
12350;SDS011;6240;51.538;7.696;2022-10-31T08:14:37;14.03;;;9.50;;
12350;SDS011;6240;51.538;7.696;2022-10-31T08:17:07;17.07;;;11.83;;
12350;SDS011;6240;51.538;7.696;2022-10-31T08:19:38;21.30;;;11.30;;
12350;SDS011;6240;51.538;7.696;2022-10-31T08:22:05;22.73;;;12.13;;
12350;SDS011;6240;51.538;7.696;2022-10-31T08:24:32;20.13;;;10.97;;
12350;SDS011;6240;51.538;7.696;2022-10-31T08:27:01;20.10;;;10.70;;
12350;SDS011;6240;51.538;7.696;2022-10-31T08:29:28;16.97;;;10.17;;
12350;SDS011;6240;51.538;7.696;2022-10-31T08:31:57;19.70;;;10.03;;
12350;SDS011;6240;51.538;7.696;2022-10-31T08:34:24;19.27;;;10.77;;
12350;SDS011;6240;51.538;7.696;2022-10-31T08:36:51;18.07;;;11.00;;
12350;SDS011;6240;51.538;7.696;2022-10-31T08:44:44;22.70;;;11.50;;
12350;SDS011;6240;51.538;7.696;2022-10-31T08:47:12;20.73;;;11.73;;
12350;SDS011;6240;51.538;7.696;2022-10-31T08:49:39;21.33;;;11.13;;
12350;SDS011;6240;51.538;7.696;2022-10-31T08:52:06;34.50;;;20.77;;
12350;SDS011;6240;51.538;7.696;2022-10-31T08:54:34;19.23;;;12.90;;
12350;SDS011;6240;51.538;7.696;2022-10-31T08:57:01;23.93;;;14.27;;
12350;SDS011;6240;51.538;7.696;2022-10-31T08:59:28;20.47;;;11.10;;
12350;SDS011;6240;51.538;7.696;2022-10-31T09:01:56;19.43;;;11.40;;
12350;SDS011;6240;51.538;7.696;2022-10-31T09:04:24;22.20;;;11.30;;
12350;SDS011;6240;51.538;7.696;2022-10-31T09:06:52;18.10;;;10.77;;
12350;SDS011;6240;51.538;7.696;2022-10-31T09:09:22;22.95;;;10.98;;
12350;SDS011;6240;51.538;7.696;2022-10-31T09:11:51;19.65;;;10.60;;
12350;SDS011;6240;51.538;7.696;2022-10-31T09:14:18;19.73;;;11.02;;
12350;SDS011;6240;51.538;7.696;2022-10-31T09:16:45;24.80;;;11.40;;
12350;SDS011;6240;51.538;7.696;2022-10-31T09:19:14;20.77;;;11.15;;
12350;SDS011;6240;51.538;7.696;2022-10-31T09:21:41;23.13;;;11.27;;
12350;SDS011;6240;51.538;7.696;2022-10-31T09:24:09;25.45;;;11.65;;
12350;SDS011;6240;51.538;7.696;2022-10-31T09:26:36;20.33;;;11.38;;
12350;SDS011;6240;51.538;7.696;2022-10-31T09:29:03;25.85;;;12.02;;
12350;SDS011;6240;51.538;7.696;2022-10-31T09:31:30;21.80;;;11.85;;
12350;SDS011;6240;51.538;7.696;2022-10-31T09:33:57;20.83;;;12.13;;
12350;SDS011;6240;51.538;7.696;2022-10-31T09:36:26;23.98;;;12.48;;
12350;SDS011;6240;51.538;7.696;2022-10-31T09:38:53;25.50;;;12.20;;
12350;SDS011;6240;51.538;7.696;2022-10-31T09:41:22;23.33;;;12.13;;
12350;SDS011;6240;51.538;7.696;2022-10-31T09:43:54;20.38;;;11.88;;
12350;SDS011;6240;51.538;7.696;2022-10-31T09:46:28;19.42;;;12.43;;
12350;SDS011;6240;51.538;7.696;2022-10-31T09:49:12;21.90;;;12.27;;
12350;SDS011;6240;51.538;7.696;2022-10-31T09:51:48;19.58;;;12.45;;
12350;SDS011;6240;51.538;7.696;2022-10-31T09:54:17;22.77;;;12.70;;
12350;SDS011;6240;51.538;7.696;2022-10-31T09:56:45;21.17;;;12.83;;
12350;SDS011;6240;51.538;7.696;2022-10-31T09:59:15;21.25;;;12.43;;
12350;SDS011;6240;51.538;7.696;2022-10-31T10:01:45;36.47;;;18.00;;
12350;SDS011;6240;51.538;7.696;2022-10-31T10:04:20;21.58;;;12.93;;
12350;SDS011;6240;51.538;7.696;2022-10-31T10:06:54;24.17;;;12.73;;
12350;SDS011;6240;51.538;7.696;2022-10-31T10:09:26;21.77;;;13.05;;
12350;SDS011;6240;51.538;7.696;2022-10-31T10:11:57;29.10;;;12.75;;
12350;SDS011;6240;51.538;7.696;2022-10-31T10:14:31;25.00;;;13.55;;
12350;SDS011;6240;51.538;7.696;2022-10-31T10:17:07;20.70;;;12.18;;
12350;SDS011;6240;51.538;7.696;2022-10-31T10:22:25;25.25;;;13.80;;
12350;SDS011;6240;51.538;7.696;2022-10-31T10:24:56;23.87;;;13.50;;
12350;SDS011;6240;51.538;7.696;2022-10-31T10:27:39;23.35;;;13.40;;
12350;SDS011;6240;51.538;7.696;2022-10-31T10:30:11;28.30;;;13.90;;
12350;SDS011;6240;51.538;7.696;2022-10-31T10:32:40;29.20;;;17.15;;
12350;SDS011;6240;51.538;7.696;2022-10-31T10:35:10;24.85;;;13.95;;
12350;SDS011;6240;51.538;7.696;2022-10-31T10:37:45;26.15;;;13.43;;
12350;SDS011;6240;51.538;7.696;2022-10-31T10:40:16;28.50;;;14.15;;
12350;SDS011;6240;51.538;7.696;2022-10-31T10:42:44;26.13;;;14.75;;
12350;SDS011;6240;51.538;7.696;2022-10-31T10:45:32;27.30;;;13.95;;
12350;SDS011;6240;51.538;7.696;2022-10-31T10:48:31;20.50;;;13.63;;
12350;SDS011;6240;51.538;7.696;2022-10-31T10:51:04;24.40;;;13.68;;
12350;SDS011;6240;51.538;7.696;2022-10-31T10:53:39;26.00;;;15.15;;
12350;SDS011;6240;51.538;7.696;2022-10-31T10:56:29;34.45;;;14.40;;
12350;SDS011;6240;51.538;7.696;2022-10-31T10:58:57;19.48;;;12.73;;
12350;SDS011;6240;51.538;7.696;2022-10-31T11:01:25;22.33;;;13.55;;
12350;SDS011;6240;51.538;7.696;2022-10-31T11:03:52;28.67;;;15.18;;
12350;SDS011;6240;51.538;7.696;2022-10-31T11:06:19;28.63;;;14.38;;
12350;SDS011;6240;51.538;7.696;2022-10-31T11:08:52;26.45;;;14.32;;
12350;SDS011;6240;51.538;7.696;2022-10-31T11:11:25;28.45;;;16.00;;
12350;SDS011;6240;51.538;7.696;2022-10-31T11:13:55;31.02;;;15.57;;
12350;SDS011;6240;51.538;7.696;2022-10-31T11:16:28;32.03;;;16.65;;
12350;SDS011;6240;51.538;7.696;2022-10-31T11:19:05;30.15;;;16.65;;
12350;SDS011;6240;51.538;7.696;2022-10-31T11:21:33;30.38;;;15.88;;
12350;SDS011;6240;51.538;7.696;2022-10-31T11:24:03;28.23;;;16.20;;
12350;SDS011;6240;51.538;7.696;2022-10-31T11:26:30;29.17;;;16.50;;
12350;SDS011;6240;51.538;7.696;2022-10-31T11:29:00;25.50;;;16.77;;
12350;SDS011;6240;51.538;7.696;2022-10-31T11:31:28;36.60;;;18.55;;
12350;SDS011;6240;51.538;7.696;2022-10-31T11:33:58;23.42;;;16.00;;
12350;SDS011;6240;51.538;7.696;2022-10-31T11:36:26;28.23;;;15.73;;
12350;SDS011;6240;51.538;7.696;2022-10-31T11:38:54;24.75;;;15.40;;
12350;SDS011;6240;51.538;7.696;2022-10-31T11:41:25;23.98;;;15.38;;
12350;SDS011;6240;51.538;7.696;2022-10-31T11:43:53;26.63;;;15.48;;
12350;SDS011;6240;51.538;7.696;2022-10-31T11:46:21;28.23;;;14.85;;
12350;SDS011;6240;51.538;7.696;2022-10-31T11:48:50;26.00;;;16.08;;
12350;SDS011;6240;51.538;7.696;2022-10-31T11:51:22;27.38;;;14.80;;
12350;SDS011;6240;51.538;7.696;2022-10-31T11:53:50;26.55;;;15.45;;
12350;SDS011;6240;51.538;7.696;2022-10-31T11:56:18;26.92;;;14.73;;
12350;SDS011;6240;51.538;7.696;2022-10-31T11:58:55;31.02;;;15.57;;
12350;SDS011;6240;51.538;7.696;2022-10-31T12:01:24;26.83;;;14.70;;
12350;SDS011;6240;51.538;7.696;2022-10-31T12:03:54;26.05;;;14.88;;
12350;SDS011;6240;51.538;7.696;2022-10-31T12:06:22;23.27;;;13.90;;
12350;SDS011;6240;51.538;7.696;2022-10-31T12:08:50;25.33;;;15.18;;
12350;SDS011;6240;51.538;7.696;2022-10-31T12:11:22;27.50;;;14.82;;
12350;SDS011;6240;51.538;7.696;2022-10-31T12:14:02;21.13;;;13.68;;
12350;SDS011;6240;51.538;7.696;2022-10-31T12:16:33;23.20;;;13.95;;
12350;SDS011;6240;51.538;7.696;2022-10-31T12:19:03;23.90;;;15.10;;
12350;SDS011;6240;51.538;7.696;2022-10-31T12:21:41;28.65;;;14.63;;
12350;SDS011;6240;51.538;7.696;2022-10-31T12:24:18;24.27;;;14.93;;
12350;SDS011;6240;51.538;7.696;2022-10-31T12:26:53;28.35;;;15.05;;
12350;SDS011;6240;51.538;7.696;2022-10-31T12:29:29;31.27;;;16.10;;
12350;SDS011;6240;51.538;7.696;2022-10-31T12:32:03;22.38;;;15.05;;
12350;SDS011;6240;51.538;7.696;2022-10-31T12:34:45;24.90;;;14.30;;
12350;SDS011;6240;51.538;7.696;2022-10-31T12:37:17;24.13;;;14.48;;
12350;SDS011;6240;51.538;7.696;2022-10-31T12:39:49;27.73;;;14.38;;
12350;SDS011;6240;51.538;7.696;2022-10-31T12:42:22;39.13;;;17.20;;
12350;SDS011;6240;51.538;7.696;2022-10-31T12:45:03;27.58;;;15.02;;
12350;SDS011;6240;51.538;7.696;2022-10-31T12:50:25;27.35;;;14.55;;
12350;SDS011;6240;51.538;7.696;2022-10-31T12:53:00;23.83;;;14.35;;
12350;SDS011;6240;51.538;7.696;2022-10-31T12:55:38;27.98;;;14.80;;
12350;SDS011;6240;51.538;7.696;2022-10-31T12:58:09;27.55;;;15.07;;
12350;SDS011;6240;51.538;7.696;2022-10-31T13:00:39;23.33;;;14.73;;
12350;SDS011;6240;51.538;7.696;2022-10-31T13:03:14;26.17;;;13.93;;
12350;SDS011;6240;51.538;7.696;2022-10-31T13:05:46;30.77;;;16.30;;
12350;SDS011;6240;51.538;7.696;2022-10-31T13:08:15;26.70;;;14.95;;
12350;SDS011;6240;51.538;7.696;2022-10-31T13:10:44;26.83;;;14.93;;
12350;SDS011;6240;51.538;7.696;2022-10-31T13:13:13;24.52;;;15.23;;
12350;SDS011;6240;51.538;7.696;2022-10-31T13:15:46;27.23;;;14.55;;
12350;SDS011;6240;51.538;7.696;2022-10-31T13:18:21;25.63;;;14.77;;
12350;SDS011;6240;51.538;7.696;2022-10-31T13:20:51;28.35;;;14.85;;
12350;SDS011;6240;51.538;7.696;2022-10-31T13:23:21;26.38;;;15.25;;
12350;SDS011;6240;51.538;7.696;2022-10-31T13:25:51;26.25;;;14.60;;
12350;SDS011;6240;51.538;7.696;2022-10-31T13:28:23;26.70;;;14.43;;
12350;SDS011;6240;51.538;7.696;2022-10-31T13:30:53;27.17;;;15.07;;
12350;SDS011;6240;51.538;7.696;2022-10-31T13:33:21;25.60;;;15.05;;
12350;SDS011;6240;51.538;7.696;2022-10-31T13:35:51;24.98;;;15.55;;
12350;SDS011;6240;51.538;7.696;2022-10-31T13:38:21;30.85;;;16.60;;
12350;SDS011;6240;51.538;7.696;2022-10-31T13:40:51;27.83;;;16.08;;
12350;SDS011;6240;51.538;7.696;2022-10-31T13:43:32;24.00;;;16.20;;
12350;SDS011;6240;51.538;7.696;2022-10-31T13:48:49;27.52;;;15.45;;
12350;SDS011;6240;51.538;7.696;2022-10-31T13:51:24;25.48;;;15.70;;
12350;SDS011;6240;51.538;7.696;2022-10-31T13:53:56;26.23;;;15.73;;
12350;SDS011;6240;51.538;7.696;2022-10-31T13:56:33;30.45;;;16.70;;
12350;SDS011;6240;51.538;7.696;2022-10-31T13:59:15;30.08;;;15.80;;
12350;SDS011;6240;51.538;7.696;2022-10-31T14:01:46;29.00;;;16.55;;
12350;SDS011;6240;51.538;7.696;2022-10-31T14:04:17;29.75;;;15.05;;
12350;SDS011;6240;51.538;7.696;2022-10-31T14:06:49;32.15;;;15.98;;
12350;SDS011;6240;51.538;7.696;2022-10-31T14:09:24;27.70;;;16.15;;
12350;SDS011;6240;51.538;7.696;2022-10-31T14:11:52;24.23;;;15.70;;
12350;SDS011;6240;51.538;7.696;2022-10-31T14:14:19;31.95;;;17.58;;
12350;SDS011;6240;51.538;7.696;2022-10-31T14:16:52;29.77;;;16.58;;
12350;SDS011;6240;51.538;7.696;2022-10-31T14:19:21;33.22;;;17.05;;
12350;SDS011;6240;51.538;7.696;2022-10-31T14:21:49;33.38;;;16.13;;
12350;SDS011;6240;51.538;7.696;2022-10-31T14:24:30;25.25;;;15.18;;
12350;SDS011;6240;51.538;7.696;2022-10-31T14:26:58;34.40;;;16.48;;
12350;SDS011;6240;51.538;7.696;2022-10-31T14:29:27;30.05;;;15.52;;
12350;SDS011;6240;51.538;7.696;2022-10-31T14:32:04;26.42;;;16.65;;
12350;SDS011;6240;51.538;7.696;2022-10-31T14:34:38;29.13;;;16.38;;
12350;SDS011;6240;51.538;7.696;2022-10-31T14:39:55;28.77;;;16.88;;
12350;SDS011;6240;51.538;7.696;2022-10-31T14:42:30;25.00;;;16.17;;
12350;SDS011;6240;51.538;7.696;2022-10-31T14:45:05;25.70;;;16.15;;
12350;SDS011;6240;51.538;7.696;2022-10-31T14:47:41;28.48;;;16.10;;
12350;SDS011;6240;51.538;7.696;2022-10-31T14:50:20;26.83;;;16.48;;
12350;SDS011;6240;51.538;7.696;2022-10-31T14:52:49;26.98;;;16.17;;
12350;SDS011;6240;51.538;7.696;2022-10-31T14:55:17;33.42;;;16.75;;
12350;SDS011;6240;51.538;7.696;2022-10-31T14:57:47;31.15;;;17.15;;
12350;SDS011;6240;51.538;7.696;2022-10-31T15:00:18;26.27;;;14.80;;
12350;SDS011;6240;51.538;7.696;2022-10-31T15:02:47;28.15;;;15.73;;
12350;SDS011;6240;51.538;7.696;2022-10-31T15:05:18;28.55;;;16.48;;
12350;SDS011;6240;51.538;7.696;2022-10-31T15:07:50;28.88;;;17.35;;
12350;SDS011;6240;51.538;7.696;2022-10-31T15:10:21;23.05;;;15.68;;
12350;SDS011;6240;51.538;7.696;2022-10-31T15:12:51;29.13;;;16.67;;
12350;SDS011;6240;51.538;7.696;2022-10-31T15:15:20;26.15;;;16.02;;